createdAt,value
2023-04-20T00:02:21.776Z,100440.19
2023-04-20T00:04:48.928Z,100441.69
2023-04-20T00:07:16.867Z,100440.00
2023-04-20T00:09:43.868Z,100436.53
2023-04-20T00:12:10.926Z,100429.63
2023-04-20T00:14:37.962Z,100426.16
2023-04-20T00:17:05.688Z,100431.22
2023-04-20T00:19:33.373Z,100427.66
2023-04-20T00:22:00.582Z,100425.00
2023-04-20T00:24:27.517Z,100421.44
2023-04-20T00:26:55.083Z,100424.53
2023-04-20T00:29:22.371Z,100414.78
2023-04-20T00:31:49.488Z,100409.66
2023-04-20T00:34:16.462Z,100416.56
2023-04-20T00:36:43.677Z,100412.91
2023-04-20T00:39:11.051Z,100420.53
2023-04-20T00:41:38.190Z,100405.22
2023-04-20T00:44:07.514Z,100406.16
2023-04-20T00:46:34.460Z,100400.06
2023-04-20T00:49:01.584Z,100396.38
2023-04-20T00:51:28.606Z,100394.63
2023-04-20T00:53:55.821Z,100392.78
2023-04-20T00:56:24.959Z,100393.69
2023-04-20T00:58:52.162Z,100392.88
2023-04-20T01:01:20.095Z,100387.78
2023-04-20T01:03:47.426Z,100383.50
2023-04-20T01:06:14.986Z,100384.28
2023-04-20T01:08:46.718Z,100385.16
2023-04-20T01:11:14.392Z,100386.03
2023-04-20T01:13:41.382Z,100385.22
2023-04-20T01:16:08.545Z,100389.53
2023-04-20T01:18:48.387Z,100386.91
2023-04-20T01:21:16.691Z,100382.50
2023-04-20T01:23:44.200Z,100381.50
2023-04-20T01:26:12.864Z,100384.75
2023-04-20T01:28:40.047Z,100379.50
2023-04-20T01:31:08.242Z,100376.91
2023-04-20T01:33:35.509Z,100374.25
2023-04-20T01:36:03.832Z,100362.22
2023-04-20T01:38:33.079Z,100372.34
2023-04-20T01:41:06.200Z,100367.03
2023-04-20T01:43:33.369Z,100365.81
2023-04-20T01:46:00.877Z,100365.53
2023-04-20T01:48:28.089Z,100368.94
2023-04-20T01:50:55.377Z,100370.50
2023-04-20T01:53:22.360Z,100359.19
2023-04-20T01:55:49.687Z,100368.66
2023-04-20T01:58:16.728Z,100361.78
2023-04-20T02:00:44.783Z,100364.44
2023-04-20T02:03:11.998Z,100356.75
2023-04-20T02:05:39.075Z,100355.97
2023-04-20T02:08:06.172Z,100362.03
2023-04-20T02:10:33.186Z,100355.16
2023-04-20T02:13:00.234Z,100354.97
2023-04-20T02:15:27.346Z,100352.13
2023-04-20T02:17:54.308Z,100352.03
2023-04-20T02:20:21.380Z,100351.97
2023-04-20T02:22:48.731Z,100350.97
2023-04-20T02:25:15.783Z,100356.00
2023-04-20T02:27:43.652Z,100350.78
2023-04-20T02:30:13.033Z,100348.13
2023-04-20T02:32:43.702Z,100347.91
2023-04-20T02:35:10.878Z,100353.09
2023-04-20T02:37:38.051Z,100353.16
2023-04-20T02:40:07.203Z,100349.69
2023-04-20T02:42:34.490Z,100353.25
2023-04-20T02:45:04.050Z,100351.59
2023-04-20T02:47:31.549Z,100351.59
2023-04-20T02:49:58.803Z,100347.44
2023-04-20T02:52:25.964Z,100342.41
2023-04-20T02:54:56.610Z,100339.09
2023-04-20T02:57:25.459Z,100339.28
2023-04-20T02:59:53.603Z,100337.69
2023-04-20T03:02:27.497Z,100335.22
2023-04-20T03:04:55.771Z,100336.16
2023-04-20T03:07:22.775Z,100335.56
2023-04-20T03:09:49.989Z,100340.22
2023-04-20T03:12:24.418Z,100328.53
2023-04-20T03:15:26.927Z,100329.75
2023-04-20T03:18:05.125Z,100326.34
2023-04-20T03:20:32.489Z,100327.19
2023-04-20T03:22:59.735Z,100331.50
2023-04-20T03:25:27.608Z,100329.97
2023-04-20T03:27:59.328Z,100318.69
2023-04-20T03:30:27.508Z,100326.56
2023-04-20T03:33:01.085Z,100326.81
2023-04-20T03:35:28.526Z,100326.06
2023-04-20T03:37:55.640Z,100328.81
2023-04-20T03:40:22.963Z,100321.16
2023-04-20T03:42:49.950Z,100323.03
2023-04-20T03:45:17.261Z,100330.19
2023-04-20T03:47:44.423Z,100327.00
2023-04-20T03:50:11.587Z,100329.84
2023-04-20T03:52:39.583Z,100331.03
2023-04-20T03:55:07.127Z,100339.06
2023-04-20T03:57:36.379Z,100335.03
2023-04-20T04:00:05.278Z,100324.19
2023-04-20T04:02:46.147Z,100332.22
2023-04-20T04:05:17.032Z,100331.56
2023-04-20T04:07:44.125Z,100329.22
2023-04-20T04:10:13.259Z,100324.38
2023-04-20T04:12:40.300Z,100324.66
2023-04-20T04:15:08.336Z,100324.06
2023-04-20T04:17:41.169Z,100323.50
2023-04-20T04:20:09.232Z,100321.97
2023-04-20T04:22:37.073Z,100323.84
2023-04-20T04:25:24.521Z,100321.47
2023-04-20T04:27:51.632Z,100323.44
2023-04-20T04:30:20.022Z,100320.19
2023-04-20T04:32:49.052Z,100319.50
2023-04-20T04:35:16.933Z,100311.06
2023-04-20T04:37:43.926Z,100306.84
2023-04-20T04:40:11.553Z,100309.66
2023-04-20T04:42:39.021Z,100304.69
2023-04-20T04:45:10.410Z,100304.91
2023-04-20T04:47:42.316Z,100305.97
2023-04-20T04:50:10.651Z,100312.19
2023-04-20T04:52:37.662Z,100309.72
2023-04-20T04:55:08.448Z,100309.78
2023-04-20T04:57:36.359Z,100313.22
2023-04-20T05:00:07.020Z,100310.72
2023-04-20T05:02:34.200Z,100308.28
2023-04-20T05:05:01.471Z,100302.31
2023-04-20T05:07:28.903Z,100308.47
2023-04-20T05:09:55.828Z,100301.59
2023-04-20T05:12:22.841Z,100294.75
2023-04-20T05:14:49.841Z,100287.78
2023-04-20T05:17:16.848Z,100291.28
2023-04-20T05:19:44.048Z,100299.16
2023-04-20T05:22:11.080Z,100287.06
2023-04-20T05:24:38.080Z,100289.69
2023-04-20T05:27:05.109Z,100289.72
2023-04-20T05:29:32.622Z,100280.13
2023-04-20T05:31:59.659Z,100283.59
2023-04-20T05:34:26.762Z,100285.31
2023-04-20T05:36:54.953Z,100275.75
2023-04-20T05:39:22.046Z,100275.66
2023-04-20T05:41:49.162Z,100276.47
2023-04-20T05:44:16.218Z,100283.44
2023-04-20T05:46:43.171Z,100277.28
2023-04-20T05:49:10.443Z,100281.53
2023-04-20T05:51:37.386Z,100278.88
2023-04-20T05:54:04.518Z,100270.19
2023-04-20T05:56:31.582Z,100271.88
2023-04-20T05:58:58.725Z,100265.69
2023-04-20T06:01:26.044Z,100272.47
2023-04-20T06:03:53.248Z,100267.97
2023-04-20T06:06:20.573Z,100269.59
2023-04-20T06:08:47.522Z,100262.53
2023-04-20T06:11:14.508Z,100261.47
2023-04-20T06:13:41.659Z,100264.91
2023-04-20T06:16:11.060Z,100265.56
2023-04-20T06:18:38.254Z,100260.97
2023-04-20T06:21:05.315Z,100259.91
2023-04-20T06:23:32.390Z,100257.09
2023-04-20T06:25:59.525Z,100258.81
2023-04-20T06:28:26.939Z,100257.84
2023-04-20T06:30:53.937Z,100258.44
2023-04-20T06:33:20.953Z,100260.88
2023-04-20T06:35:48.050Z,100258.06
2023-04-20T06:38:14.993Z,100254.41
2023-04-20T06:40:42.058Z,100256.78
2023-04-20T06:43:09.312Z,100243.63
2023-04-20T06:45:36.587Z,100252.94
2023-04-20T06:48:03.714Z,100244.03
2023-04-20T06:50:30.757Z,100242.19
2023-04-20T06:52:57.903Z,100248.09
2023-04-20T06:55:24.938Z,100246.22
2023-04-20T06:57:51.991Z,100240.88
2023-04-20T07:00:19.165Z,100240.50
2023-04-20T07:02:50.104Z,100238.22
2023-04-20T07:05:17.619Z,100241.13
2023-04-20T07:07:45.713Z,100236.25
2023-04-20T07:10:13.567Z,100233.31
2023-04-20T07:12:42.871Z,100233.06
2023-04-20T07:15:11.048Z,100237.13
2023-04-20T07:17:38.113Z,100237.63
2023-04-20T07:20:09.103Z,100236.53
2023-04-20T07:22:37.030Z,100235.53
2023-04-20T07:25:05.601Z,100233.56
2023-04-20T07:27:36.682Z,100227.16
2023-04-20T07:30:04.461Z,100227.16
2023-04-20T07:32:36.105Z,100231.19
2023-04-20T07:35:04.116Z,100222.25
2023-04-20T07:37:34.571Z,100218.63
2023-04-20T07:40:02.417Z,100223.88
2023-04-20T07:42:32.533Z,100222.63
2023-04-20T07:44:59.534Z,100211.97
2023-04-20T07:47:26.614Z,100206.44
2023-04-20T07:49:53.781Z,100204.31
2023-04-20T07:52:20.899Z,100205.97
2023-04-20T07:54:47.793Z,100208.78
2023-04-20T07:57:15.335Z,100205.25
2023-04-20T07:59:42.416Z,100203.06
2023-04-20T08:02:09.581Z,100198.22
2023-04-20T08:04:38.187Z,100197.03
2023-04-20T08:07:05.428Z,100196.09
2023-04-20T08:09:32.480Z,100192.53
2023-04-20T08:12:00.405Z,100193.66
2023-04-20T08:14:27.451Z,100184.75
2023-04-20T08:16:54.404Z,100187.34
2023-04-20T08:19:21.491Z,100189.69
2023-04-20T08:21:48.652Z,100191.78
2023-04-20T08:24:15.795Z,100180.94
2023-04-20T08:26:43.522Z,100188.75
2023-04-20T08:29:10.800Z,100177.44
2023-04-20T08:31:37.996Z,100182.06
2023-04-20T08:34:05.063Z,100180.69
2023-04-20T08:36:32.309Z,100173.34
2023-04-20T08:39:07.850Z,100172.00
2023-04-20T08:41:35.184Z,100177.09
2023-04-20T08:44:02.128Z,100171.91
2023-04-20T08:46:29.481Z,100168.00
2023-04-20T08:48:56.808Z,100181.44
2023-04-20T08:51:24.421Z,100172.06
2023-04-20T08:53:51.803Z,100170.03
2023-04-20T08:56:18.866Z,100172.34
2023-04-20T08:58:45.974Z,100163.19
2023-04-20T09:01:17.500Z,100161.25
2023-04-20T09:03:47.075Z,100155.41
2023-04-20T09:06:16.170Z,100157.03
2023-04-20T09:08:44.928Z,100152.69
2023-04-20T09:11:24.731Z,100144.97
2023-04-20T09:14:18.514Z,100144.19
2023-04-20T09:16:53.256Z,100138.69
2023-04-20T09:19:24.772Z,100136.59
2023-04-20T09:21:53.027Z,100137.59
2023-04-20T09:24:20.976Z,100146.88
2023-04-20T09:26:48.144Z,100142.13
2023-04-20T09:29:19.488Z,100139.78
2023-04-20T09:31:48.223Z,100140.66
2023-04-20T09:34:15.942Z,100146.81
2023-04-20T09:36:44.793Z,100130.34
2023-04-20T09:39:22.433Z,100133.06
2023-04-20T09:41:50.450Z,100137.19
2023-04-20T09:44:18.190Z,100127.38
2023-04-20T09:46:46.558Z,100129.78
2023-04-20T09:49:14.825Z,100119.13
2023-04-20T09:51:46.153Z,100117.28
2023-04-20T09:54:14.140Z,100118.75
2023-04-20T09:56:41.300Z,100109.38
2023-04-20T09:59:08.392Z,100103.72
2023-04-20T10:01:36.609Z,100106.91
2023-04-20T10:04:07.688Z,100107.13
2023-04-20T10:06:35.408Z,100104.88
2023-04-20T10:09:04.175Z,100106.47
2023-04-20T10:11:40.431Z,100089.25
2023-04-20T10:14:20.454Z,100090.66
2023-04-20T10:17:01.806Z,100085.28
2023-04-20T10:19:39.764Z,100083.25
2023-04-20T10:22:07.513Z,100093.88
2023-04-20T10:24:34.722Z,100088.97
2023-04-20T10:27:04.245Z,100097.69
2023-04-20T10:29:36.536Z,100096.25
2023-04-20T10:32:03.626Z,100095.28
2023-04-20T10:34:31.655Z,100089.78
2023-04-20T10:37:11.266Z,100088.28
2023-04-20T10:39:47.478Z,100086.88
2023-04-20T10:42:16.690Z,100082.25
2023-04-20T10:44:51.383Z,100083.31
2023-04-20T10:47:19.101Z,100091.41
2023-04-20T10:49:46.217Z,100083.59
2023-04-20T10:52:13.206Z,100080.00
2023-04-20T10:54:40.578Z,100084.22
2023-04-20T10:57:07.912Z,100083.09
2023-04-20T10:59:37.226Z,100079.75
2023-04-20T11:02:08.166Z,100078.53
2023-04-20T11:04:37.229Z,100070.97
2023-04-20T11:07:08.915Z,100076.59
2023-04-20T11:09:36.403Z,100074.41
2023-04-20T11:12:07.889Z,100067.06
2023-04-20T11:14:39.120Z,100064.22
2023-04-20T11:17:06.539Z,100067.38
2023-04-20T11:19:35.082Z,100062.34
2023-04-20T11:22:02.914Z,100059.94
2023-04-20T11:24:31.486Z,100047.88
2023-04-20T11:26:58.926Z,100050.63
2023-04-20T11:29:36.321Z,100047.34
2023-04-20T11:32:05.108Z,100052.69
2023-04-20T11:34:33.124Z,100037.03
2023-04-20T11:37:13.838Z,100043.09
2023-04-20T11:39:42.035Z,100033.59
2023-04-20T11:42:09.101Z,100035.06
2023-04-20T11:44:37.084Z,100028.22
2023-04-20T11:47:04.574Z,100028.44
2023-04-20T11:49:31.664Z,100026.00
2023-04-20T11:51:58.658Z,100023.63
2023-04-20T11:54:28.360Z,100018.28
2023-04-20T11:56:55.591Z,100013.47
2023-04-20T11:59:22.835Z,100014.78
2023-04-20T12:01:50.058Z,100013.25
2023-04-20T12:04:17.625Z,100004.75
2023-04-20T12:06:45.135Z,100007.63
2023-04-20T12:09:13.626Z,99994.97
2023-04-20T12:11:41.217Z,99995.41
2023-04-20T12:14:08.371Z,99988.72
2023-04-20T12:16:35.570Z,99991.53
2023-04-20T12:19:02.469Z,99984.63
2023-04-20T12:21:29.706Z,99978.56
2023-04-20T12:23:58.716Z,99979.47
2023-04-20T12:26:34.912Z,99976.03
2023-04-20T12:29:04.398Z,99972.22
2023-04-20T12:31:31.994Z,99966.41
2023-04-20T12:33:59.587Z,99970.88
2023-04-20T12:36:28.199Z,99961.59
2023-04-20T12:38:56.217Z,99965.47
2023-04-20T12:41:23.985Z,99955.88
2023-04-20T12:43:54.110Z,99963.59
2023-04-20T12:46:21.456Z,99949.13
2023-04-20T12:48:48.758Z,99952.28
2023-04-20T12:51:15.900Z,99945.69
2023-04-20T12:53:42.878Z,99942.44
2023-04-20T12:56:09.966Z,99948.00
2023-04-20T12:58:37.192Z,99944.38
2023-04-20T13:01:04.313Z,99935.38
2023-04-20T13:03:31.723Z,99940.81
2023-04-20T13:06:00.029Z,99928.97
2023-04-20T13:08:27.157Z,99933.69
2023-04-20T13:10:54.402Z,99929.63
2023-04-20T13:13:21.353Z,99927.19
2023-04-20T13:15:48.426Z,99924.88
2023-04-20T13:18:15.574Z,99924.19
2023-04-20T13:20:42.723Z,99923.53
2023-04-20T13:23:10.082Z,99914.97
2023-04-20T13:25:38.759Z,99921.03
2023-04-20T13:28:05.895Z,99912.03
2023-04-20T13:30:32.958Z,99916.13
2023-04-20T13:33:00.398Z,99914.31
2023-04-20T13:35:27.707Z,99914.22
2023-04-20T13:37:54.686Z,99905.22
2023-04-20T13:40:21.675Z,99906.75
2023-04-20T13:42:48.692Z,99904.81
2023-04-20T13:45:15.744Z,99901.03
2023-04-20T13:47:42.783Z,99903.44
2023-04-20T13:50:10.498Z,99906.06
2023-04-20T13:52:37.498Z,99910.44
2023-04-20T13:55:05.495Z,99904.47
2023-04-20T13:57:32.774Z,99908.09
2023-04-20T14:00:01.274Z,99904.22
2023-04-20T14:02:34.221Z,99900.38
2023-04-20T14:05:02.894Z,99900.59
2023-04-20T14:07:31.004Z,99901.47
2023-04-20T14:09:59.865Z,99899.75
2023-04-20T14:12:30.279Z,99902.34
2023-04-20T14:14:57.399Z,99899.03
2023-04-20T14:17:24.694Z,99899.38
2023-04-20T14:19:51.726Z,99891.81
2023-04-20T14:22:18.775Z,99907.72
2023-04-20T14:24:46.630Z,99904.47
2023-04-20T14:27:13.698Z,99903.75
2023-04-20T14:29:40.925Z,99904.94
2023-04-20T14:32:08.110Z,99901.84
2023-04-20T14:34:35.104Z,99906.56
2023-04-20T14:37:02.166Z,99900.72
2023-04-20T14:39:29.202Z,99898.34
2023-04-20T14:41:56.356Z,99898.63
2023-04-20T14:44:23.358Z,99899.72
2023-04-20T14:46:50.531Z,99894.69
2023-04-20T14:49:17.641Z,99899.28
2023-04-20T14:51:44.683Z,99902.13
2023-04-20T14:54:11.794Z,99898.03
2023-04-20T14:56:38.858Z,99894.69
2023-04-20T14:59:05.921Z,99893.03
2023-04-20T15:01:32.932Z,99892.97
2023-04-20T15:04:00.020Z,99892.09
2023-04-20T15:06:27.233Z,99889.41
2023-04-20T15:08:57.102Z,99890.19
2023-04-20T15:11:24.093Z,99889.34
2023-04-20T15:13:52.197Z,99892.06
2023-04-20T15:16:19.276Z,99884.22
2023-04-20T15:18:46.636Z,99887.69
2023-04-20T15:21:13.571Z,99884.28
2023-04-20T15:23:40.671Z,99882.69
2023-04-20T15:26:08.278Z,99888.97
2023-04-20T15:28:35.233Z,99895.25
2023-04-20T15:31:02.206Z,99897.22
2023-04-20T15:33:29.420Z,99892.28
2023-04-20T15:35:56.607Z,99893.44
2023-04-20T15:38:23.937Z,99895.41
2023-04-20T15:40:51.630Z,99890.31
2023-04-20T15:43:18.725Z,99886.91
2023-04-20T15:45:45.786Z,99886.13
2023-04-20T15:48:12.814Z,99894.00
2023-04-20T15:50:40.085Z,99894.16
2023-04-20T15:53:07.495Z,99899.47
2023-04-20T15:55:38.309Z,99896.06
2023-04-20T15:58:05.291Z,99899.59
2023-04-20T16:00:32.552Z,99897.13
2023-04-20T16:03:01.741Z,99894.63
2023-04-20T16:05:29.120Z,99897.31
2023-04-20T16:07:56.100Z,99894.75
2023-04-20T16:10:23.691Z,99893.94
2023-04-20T16:12:51.023Z,99903.56
2023-04-20T16:15:18.137Z,99896.69
2023-04-20T16:17:45.520Z,99901.09
2023-04-20T16:20:12.845Z,99907.19
2023-04-20T16:22:40.031Z,99905.47
2023-04-20T16:25:07.346Z,99908.22
2023-04-20T16:27:34.314Z,99908.38
2023-04-20T16:30:01.333Z,99902.41
2023-04-20T16:32:28.515Z,99908.53
2023-04-20T16:34:55.834Z,99916.38
2023-04-20T16:37:22.841Z,99912.91
2023-04-20T16:39:49.832Z,99912.03
2023-04-20T16:42:17.132Z,99911.25
2023-04-20T16:44:44.279Z,99909.59
2023-04-20T16:47:11.353Z,99906.16
2023-04-20T16:49:38.443Z,99918.34
2023-04-20T16:52:05.397Z,99914.06
2023-04-20T16:54:32.457Z,99921.09
2023-04-20T16:56:59.485Z,99924.63
2023-04-20T16:59:26.579Z,99917.69
2023-04-20T17:01:53.689Z,99927.28
2023-04-20T17:04:21.042Z,99921.22
2023-04-20T17:06:48.460Z,99929.03
2023-04-20T17:09:15.486Z,99922.97
2023-04-20T17:11:42.363Z,99923.94
2023-04-20T17:14:09.367Z,99927.41
2023-04-20T17:16:36.370Z,99932.63
2023-04-20T17:19:03.952Z,99926.59
2023-04-20T17:21:30.952Z,99925.72
2023-04-20T17:23:57.910Z,99925.75
2023-04-20T17:26:24.984Z,99926.66
2023-04-20T17:28:52.041Z,99919.72
2023-04-20T17:31:22.176Z,99922.34
2023-04-20T17:33:52.158Z,99925.81
2023-04-20T17:36:19.206Z,99922.38
2023-04-20T17:38:46.395Z,99925.84
2023-04-20T17:41:13.733Z,99925.88
2023-04-20T17:43:41.070Z,99934.56
2023-04-20T17:46:08.215Z,99930.25
2023-04-20T17:48:35.590Z,99926.81
2023-04-20T17:51:02.736Z,99927.72
2023-04-20T17:53:29.904Z,99924.25
2023-04-20T17:55:57.037Z,99925.09
2023-04-20T17:58:25.052Z,99924.22
2023-04-20T18:00:52.174Z,99926.81
2023-04-20T18:03:20.076Z,99924.25
2023-04-20T18:05:47.424Z,99921.63
2023-04-20T18:08:15.536Z,99913.88
2023-04-20T18:10:42.632Z,99913.00
2023-04-20T18:13:09.733Z,99914.72
2023-04-20T18:15:36.837Z,99913.00
2023-04-20T18:18:03.925Z,99921.66
2023-04-20T18:20:32.348Z,99919.06
2023-04-20T18:23:00.253Z,99912.16
2023-04-20T18:25:27.375Z,99913.03
2023-04-20T18:27:54.557Z,99910.44
2023-04-20T18:30:21.715Z,99909.59
2023-04-20T18:32:48.914Z,99915.66
2023-04-20T18:35:16.350Z,99918.25
2023-04-20T18:37:43.318Z,99916.53
2023-04-20T18:40:10.725Z,99913.06
2023-04-20T18:42:37.778Z,99917.41
2023-04-20T18:45:06.160Z,99914.81
2023-04-20T18:47:33.676Z,99913.06
2023-04-20T18:50:00.803Z,99913.94
2023-04-20T18:52:28.141Z,99906.16
2023-04-20T18:54:55.571Z,99910.50
2023-04-20T18:57:26.325Z,99913.09
2023-04-20T18:59:53.574Z,99899.25
2023-04-20T19:02:20.875Z,99912.25
2023-04-20T19:04:47.942Z,99913.09
2023-04-20T19:07:14.849Z,99907.03
2023-04-20T19:09:41.881Z,99910.50
2023-04-20T19:12:09.149Z,99911.34
2023-04-20T19:14:36.208Z,99911.38
2023-04-20T19:17:07.067Z,99910.47
2023-04-20T19:19:34.232Z,99914.81
2023-04-20T19:22:01.819Z,99910.47
2023-04-20T19:24:29.034Z,99909.63
2023-04-20T19:26:56.028Z,99905.31
2023-04-20T19:29:23.088Z,99900.97
2023-04-20T19:31:50.187Z,99909.63
2023-04-20T19:34:17.635Z,99900.09
2023-04-20T19:36:44.718Z,99904.44
2023-04-20T19:39:11.752Z,99901.00
2023-04-20T19:41:38.878Z,99897.50
2023-04-20T19:44:06.591Z,99906.16
2023-04-20T19:46:34.140Z,99911.38
2023-04-20T19:49:01.248Z,99907.03
2023-04-20T19:51:28.362Z,99910.47
2023-04-20T19:53:56.507Z,99906.19
2023-04-20T19:56:23.654Z,99915.69
2023-04-20T19:58:50.813Z,99908.75
2023-04-20T20:01:18.172Z,99907.03
2023-04-20T20:03:45.404Z,99918.28
2023-04-20T20:06:12.536Z,99913.09
2023-04-20T20:08:39.544Z,99910.47
2023-04-20T20:11:06.616Z,99913.09
2023-04-20T20:13:33.608Z,99913.09
2023-04-20T20:16:00.670Z,99915.66
2023-04-20T20:18:27.773Z,99910.47
2023-04-20T20:20:55.000Z,99907.88
2023-04-20T20:23:21.984Z,99910.47
2023-04-20T20:25:48.949Z,99901.81
2023-04-20T20:28:15.988Z,99902.66
2023-04-20T20:30:45.326Z,99902.66
2023-04-20T20:33:12.707Z,99900.00
2023-04-20T20:35:40.016Z,99900.88
2023-04-20T20:38:08.064Z,99893.06
2023-04-20T20:40:35.346Z,99887.03
2023-04-20T20:43:03.955Z,99882.72
2023-04-20T20:45:31.870Z,99887.03
2023-04-20T20:47:59.435Z,99879.22
2023-04-20T20:50:27.978Z,99874.91
2023-04-20T20:52:55.061Z,99881.75
2023-04-20T20:55:22.045Z,99877.44
2023-04-20T20:57:49.103Z,99883.50
2023-04-20T21:00:16.337Z,99878.31
2023-04-20T21:02:43.546Z,99875.72
2023-04-20T21:05:10.708Z,99868.78
2023-04-20T21:07:37.731Z,99876.56
2023-04-20T21:10:05.013Z,99868.75
2023-04-20T21:12:35.573Z,99870.47
2023-04-20T21:15:02.772Z,99868.72
2023-04-20T21:17:32.044Z,99866.09
2023-04-20T21:19:59.106Z,99866.09
2023-04-20T21:22:26.319Z,99861.78
2023-04-20T21:24:53.389Z,99855.72
2023-04-20T21:27:20.627Z,99859.16
2023-04-20T21:29:47.587Z,99857.41
2023-04-20T21:32:14.644Z,99858.19
2023-04-20T21:34:41.848Z,99870.22
2023-04-20T21:37:09.237Z,99862.41
2023-04-20T21:39:36.474Z,99873.56
2023-04-20T21:42:03.698Z,99870.06
2023-04-20T21:44:30.901Z,99870.91
2023-04-20T21:46:57.904Z,99875.19
2023-04-20T21:49:24.901Z,99875.22
2023-04-20T21:51:51.858Z,99869.16
2023-04-20T21:54:18.868Z,99872.56
2023-04-20T21:56:46.656Z,99876.03
2023-04-20T21:59:14.494Z,99871.66
2023-04-20T22:01:41.641Z,99861.28
2023-04-20T22:04:10.452Z,99866.41
2023-04-20T22:06:37.648Z,99871.56
2023-04-20T22:09:05.058Z,99864.63
2023-04-20T22:11:36.462Z,99861.16
2023-04-20T22:14:04.189Z,99860.25
2023-04-20T22:16:34.045Z,99860.22
2023-04-20T22:19:01.528Z,99855.03
2023-04-20T22:21:28.673Z,99856.78
2023-04-20T22:23:55.819Z,99851.59
2023-04-20T22:26:22.998Z,99845.56
2023-04-20T22:28:50.082Z,99851.63
2023-04-20T22:31:17.094Z,99845.59
2023-04-20T22:33:44.259Z,99858.50
2023-04-20T22:36:11.445Z,99867.88
2023-04-20T22:38:38.499Z,99869.53
2023-04-20T22:41:05.716Z,99867.84
2023-04-20T22:43:32.844Z,99868.69
2023-04-20T22:45:59.812Z,99868.66
2023-04-20T22:48:26.891Z,99860.09
2023-04-20T22:50:54.385Z,99855.69
2023-04-20T22:53:21.810Z,99847.81
2023-04-20T22:55:48.888Z,99849.47
2023-04-20T22:58:15.990Z,99850.31
2023-04-20T23:00:43.070Z,99847.75
2023-04-20T23:03:10.137Z,99854.63
2023-04-20T23:05:37.251Z,99848.59
2023-04-20T23:08:04.301Z,99849.38
2023-04-20T23:10:31.145Z,99847.53
2023-04-20T23:12:58.102Z,99844.91
2023-04-20T23:15:25.177Z,99849.22
2023-04-20T23:17:52.663Z,99843.25
2023-04-20T23:20:19.788Z,99841.50
2023-04-20T23:22:46.771Z,99845.75
2023-04-20T23:25:13.784Z,99848.31
2023-04-20T23:27:40.756Z,99836.19
2023-04-20T23:30:08.753Z,99834.41
2023-04-20T23:32:37.253Z,99830.91
2023-04-20T23:35:04.614Z,99835.19
2023-04-20T23:37:31.948Z,99831.59
2023-04-20T23:39:58.930Z,99832.44
2023-04-20T23:42:25.987Z,99824.72
2023-04-20T23:44:52.949Z,99822.16
2023-04-20T23:47:20.032Z,99823.88
2023-04-20T23:49:46.920Z,99816.09
2023-04-20T23:52:13.894Z,99819.47
2023-04-20T23:54:40.904Z,99809.91
2023-04-20T23:57:07.772Z,99809.03
2023-04-20T23:59:34.796Z,99805.53
